sensor_id;sensor_type;location;lat;lon;timestamp;P1;durP1;ratioP1;P2;durP2;ratioP2
60730;SDS011;46580;52.114;11.674;2024-02-26T00:01:07;3.97;;;2.10;;
60730;SDS011;46580;52.114;11.674;2024-02-26T00:03:32;4.13;;;2.70;;
60730;SDS011;46580;52.114;11.674;2024-02-26T00:06:00;5.47;;;2.50;;
60730;SDS011;46580;52.114;11.674;2024-02-26T00:08:26;2.80;;;2.10;;
60730;SDS011;46580;52.114;11.674;2024-02-26T00:10:52;2.90;;;1.93;;
60730;SDS011;46580;52.114;11.674;2024-02-26T00:13:17;2.63;;;2.10;;
60730;SDS011;46580;52.114;11.674;2024-02-26T00:15:42;4.47;;;2.20;;
60730;SDS011;46580;52.114;11.674;2024-02-26T00:18:08;3.67;;;2.20;;
60730;SDS011;46580;52.114;11.674;2024-02-26T00:20:33;3.07;;;2.03;;
60730;SDS011;46580;52.114;11.674;2024-02-26T00:22:59;2.30;;;1.83;;
60730;SDS011;46580;52.114;11.674;2024-02-26T00:25:24;4.90;;;2.70;;
60730;SDS011;46580;52.114;11.674;2024-02-26T00:27:50;3.10;;;2.17;;
60730;SDS011;46580;52.114;11.674;2024-02-26T00:30:15;3.63;;;2.23;;
60730;SDS011;46580;52.114;11.674;2024-02-26T00:32:40;2.67;;;1.80;;
60730;SDS011;46580;52.114;11.674;2024-02-26T00:35:06;2.93;;;2.27;;
60730;SDS011;46580;52.114;11.674;2024-02-26T00:37:31;4.13;;;1.90;;
60730;SDS011;46580;52.114;11.674;2024-02-26T00:39:57;3.30;;;2.03;;
60730;SDS011;46580;52.114;11.674;2024-02-26T00:42:22;4.23;;;2.10;;
60730;SDS011;46580;52.114;11.674;2024-02-26T00:44:48;1.60;;;1.40;;
60730;SDS011;46580;52.114;11.674;2024-02-26T00:47:13;4.53;;;2.10;;
60730;SDS011;46580;52.114;11.674;2024-02-26T00:49:38;3.33;;;2.37;;
60730;SDS011;46580;52.114;11.674;2024-02-26T00:52:04;2.73;;;1.80;;
60730;SDS011;46580;52.114;11.674;2024-02-26T00:54:29;1.50;;;1.30;;
60730;SDS011;46580;52.114;11.674;2024-02-26T00:56:55;2.73;;;1.90;;
60730;SDS011;46580;52.114;11.674;2024-02-26T00:59:20;3.67;;;1.90;;
60730;SDS011;46580;52.114;11.674;2024-02-26T01:01:46;3.93;;;2.50;;
60730;SDS011;46580;52.114;11.674;2024-02-26T01:04:11;3.37;;;2.00;;
60730;SDS011;46580;52.114;11.674;2024-02-26T01:06:37;2.00;;;1.67;;
60730;SDS011;46580;52.114;11.674;2024-02-26T01:09:02;2.23;;;1.53;;
60730;SDS011;46580;52.114;11.674;2024-02-26T01:11:28;3.17;;;2.27;;
60730;SDS011;46580;52.114;11.674;2024-02-26T01:13:54;4.80;;;2.13;;
60730;SDS011;46580;52.114;11.674;2024-02-26T01:16:21;2.47;;;1.97;;
60730;SDS011;46580;52.114;11.674;2024-02-26T01:18:49;3.20;;;1.80;;
60730;SDS011;46580;52.114;11.674;2024-02-26T01:21:15;4.07;;;2.10;;
60730;SDS011;46580;52.114;11.674;2024-02-26T01:23:40;3.13;;;2.47;;
60730;SDS011;46580;52.114;11.674;2024-02-26T01:26:06;2.97;;;2.13;;
60730;SDS011;46580;52.114;11.674;2024-02-26T01:28:31;2.33;;;1.80;;
60730;SDS011;46580;52.114;11.674;2024-02-26T01:30:57;3.70;;;2.07;;
60730;SDS011;46580;52.114;11.674;2024-02-26T01:33:24;4.10;;;2.50;;
60730;SDS011;46580;52.114;11.674;2024-02-26T01:35:51;2.93;;;2.03;;
60730;SDS011;46580;52.114;11.674;2024-02-26T01:38:16;3.33;;;1.97;;
60730;SDS011;46580;52.114;11.674;2024-02-26T01:40:41;2.63;;;1.90;;
60730;SDS011;46580;52.114;11.674;2024-02-26T01:43:07;2.17;;;1.77;;
60730;SDS011;46580;52.114;11.674;2024-02-26T01:45:32;3.07;;;2.03;;
60730;SDS011;46580;52.114;11.674;2024-02-26T01:47:57;2.47;;;1.87;;
60730;SDS011;46580;52.114;11.674;2024-02-26T01:50:23;3.93;;;2.13;;
60730;SDS011;46580;52.114;11.674;2024-02-26T01:52:49;2.33;;;1.80;;
60730;SDS011;46580;52.114;11.674;2024-02-26T01:55:15;3.10;;;1.70;;
60730;SDS011;46580;52.114;11.674;2024-02-26T01:57:45;2.03;;;1.70;;
60730;SDS011;46580;52.114;11.674;2024-02-26T02:00:12;4.00;;;1.70;;
60730;SDS011;46580;52.114;11.674;2024-02-26T02:02:39;1.93;;;1.53;;
60730;SDS011;46580;52.114;11.674;2024-02-26T02:05:07;3.27;;;2.00;;
60730;SDS011;46580;52.114;11.674;2024-02-26T02:07:34;2.67;;;1.90;;
60730;SDS011;46580;52.114;11.674;2024-02-26T02:10:01;2.20;;;1.63;;
60730;SDS011;46580;52.114;11.674;2024-02-26T02:12:27;2.00;;;1.67;;
60730;SDS011;46580;52.114;11.674;2024-02-26T02:14:53;2.47;;;2.00;;
60730;SDS011;46580;52.114;11.674;2024-02-26T02:17:19;2.33;;;1.80;;
60730;SDS011;46580;52.114;11.674;2024-02-26T02:19:44;4.43;;;2.13;;
60730;SDS011;46580;52.114;11.674;2024-02-26T02:22:10;3.07;;;1.80;;
60730;SDS011;46580;52.114;11.674;2024-02-26T02:24:35;2.43;;;1.87;;
60730;SDS011;46580;52.114;11.674;2024-02-26T02:27:00;2.50;;;1.43;;
60730;SDS011;46580;52.114;11.674;2024-02-26T02:29:26;3.37;;;2.10;;
60730;SDS011;46580;52.114;11.674;2024-02-26T02:31:53;2.40;;;1.90;;
60730;SDS011;46580;52.114;11.674;2024-02-26T02:34:21;3.83;;;2.20;;
60730;SDS011;46580;52.114;11.674;2024-02-26T02:36:53;2.43;;;1.80;;
60730;SDS011;46580;52.114;11.674;2024-02-26T02:39:20;3.07;;;2.40;;
60730;SDS011;46580;52.114;11.674;2024-02-26T02:41:46;2.93;;;1.60;;
60730;SDS011;46580;52.114;11.674;2024-02-26T02:44:11;2.43;;;1.90;;
60730;SDS011;46580;52.114;11.674;2024-02-26T02:46:37;3.27;;;1.90;;
60730;SDS011;46580;52.114;11.674;2024-02-26T02:49:03;2.87;;;1.73;;
60730;SDS011;46580;52.114;11.674;2024-02-26T02:51:28;4.17;;;2.00;;
60730;SDS011;46580;52.114;11.674;2024-02-26T02:53:54;2.57;;;1.77;;
60730;SDS011;46580;52.114;11.674;2024-02-26T02:56:19;3.17;;;1.70;;
60730;SDS011;46580;52.114;11.674;2024-02-26T02:58:45;3.63;;;2.30;;
60730;SDS011;46580;52.114;11.674;2024-02-26T03:01:10;2.73;;;1.67;;
60730;SDS011;46580;52.114;11.674;2024-02-26T03:03:35;2.60;;;1.50;;
60730;SDS011;46580;52.114;11.674;2024-02-26T03:06:02;4.47;;;2.37;;
60730;SDS011;46580;52.114;11.674;2024-02-26T03:08:28;3.00;;;2.00;;
60730;SDS011;46580;52.114;11.674;2024-02-26T03:10:53;1.97;;;1.37;;
60730;SDS011;46580;52.114;11.674;2024-02-26T03:13:19;4.50;;;1.63;;
60730;SDS011;46580;52.114;11.674;2024-02-26T03:15:44;1.87;;;1.60;;
60730;SDS011;46580;52.114;11.674;2024-02-26T03:18:10;2.33;;;1.80;;
60730;SDS011;46580;52.114;11.674;2024-02-26T03:20:35;2.20;;;1.40;;
60730;SDS011;46580;52.114;11.674;2024-02-26T03:23:02;2.67;;;1.80;;
60730;SDS011;46580;52.114;11.674;2024-02-26T03:25:28;2.93;;;1.87;;
60730;SDS011;46580;52.114;11.674;2024-02-26T03:27:53;2.70;;;1.90;;
60730;SDS011;46580;52.114;11.674;2024-02-26T03:30:18;4.17;;;1.43;;
60730;SDS011;46580;52.114;11.674;2024-02-26T03:32:44;3.53;;;1.63;;
60730;SDS011;46580;52.114;11.674;2024-02-26T03:35:09;5.27;;;2.23;;
60730;SDS011;46580;52.114;11.674;2024-02-26T03:37:35;2.13;;;1.33;;
60730;SDS011;46580;52.114;11.674;2024-02-26T03:40:00;2.50;;;1.87;;
60730;SDS011;46580;52.114;11.674;2024-02-26T03:42:26;2.50;;;1.67;;
60730;SDS011;46580;52.114;11.674;2024-02-26T03:44:52;2.67;;;1.50;;
60730;SDS011;46580;52.114;11.674;2024-02-26T03:47:17;3.57;;;1.83;;
60730;SDS011;46580;52.114;11.674;2024-02-26T03:49:42;2.60;;;1.83;;
60730;SDS011;46580;52.114;11.674;2024-02-26T03:52:08;3.13;;;1.97;;
60730;SDS011;46580;52.114;11.674;2024-02-26T03:54:33;2.37;;;1.40;;
60730;SDS011;46580;52.114;11.674;2024-02-26T03:56:58;1.97;;;1.50;;
60730;SDS011;46580;52.114;11.674;2024-02-26T03:59:24;5.13;;;2.23;;
60730;SDS011;46580;52.114;11.674;2024-02-26T04:01:50;2.50;;;1.77;;
60730;SDS011;46580;52.114;11.674;2024-02-26T04:04:16;1.77;;;1.60;;
60730;SDS011;46580;52.114;11.674;2024-02-26T04:06:45;2.57;;;1.90;;
60730;SDS011;46580;52.114;11.674;2024-02-26T04:09:11;1.87;;;1.60;;
60730;SDS011;46580;52.114;11.674;2024-02-26T04:11:37;2.07;;;1.70;;
60730;SDS011;46580;52.114;11.674;2024-02-26T04:14:02;2.60;;;1.60;;
60730;SDS011;46580;52.114;11.674;2024-02-26T04:16:28;2.60;;;1.40;;
60730;SDS011;46580;52.114;11.674;2024-02-26T04:18:54;2.23;;;1.70;;
60730;SDS011;46580;52.114;11.674;2024-02-26T04:21:19;1.63;;;1.50;;
60730;SDS011;46580;52.114;11.674;2024-02-26T04:23:48;4.67;;;2.40;;
60730;SDS011;46580;52.114;11.674;2024-02-26T04:26:14;1.97;;;1.77;;
60730;SDS011;46580;52.114;11.674;2024-02-26T04:28:39;4.73;;;2.70;;
60730;SDS011;46580;52.114;11.674;2024-02-26T04:31:05;4.83;;;2.33;;
60730;SDS011;46580;52.114;11.674;2024-02-26T04:33:30;4.60;;;2.40;;
60730;SDS011;46580;52.114;11.674;2024-02-26T04:35:59;3.50;;;2.30;;
60730;SDS011;46580;52.114;11.674;2024-02-26T04:38:25;3.40;;;2.60;;
60730;SDS011;46580;52.114;11.674;2024-02-26T04:40:51;2.40;;;2.20;;
60730;SDS011;46580;52.114;11.674;2024-02-26T04:43:16;3.13;;;2.33;;
60730;SDS011;46580;52.114;11.674;2024-02-26T04:45:43;4.43;;;2.90;;
60730;SDS011;46580;52.114;11.674;2024-02-26T04:48:08;4.63;;;2.57;;
60730;SDS011;46580;52.114;11.674;2024-02-26T04:50:33;4.50;;;2.60;;
60730;SDS011;46580;52.114;11.674;2024-02-26T04:52:59;3.60;;;2.67;;
60730;SDS011;46580;52.114;11.674;2024-02-26T04:55:24;3.53;;;2.27;;
60730;SDS011;46580;52.114;11.674;2024-02-26T04:57:50;3.47;;;2.20;;
60730;SDS011;46580;52.114;11.674;2024-02-26T05:00:15;3.13;;;2.50;;
60730;SDS011;46580;52.114;11.674;2024-02-26T05:02:41;3.20;;;2.40;;
60730;SDS011;46580;52.114;11.674;2024-02-26T05:05:07;4.03;;;2.40;;
60730;SDS011;46580;52.114;11.674;2024-02-26T05:07:33;4.07;;;2.20;;
60730;SDS011;46580;52.114;11.674;2024-02-26T05:10:04;4.10;;;2.70;;
60730;SDS011;46580;52.114;11.674;2024-02-26T05:12:33;4.37;;;2.27;;
60730;SDS011;46580;52.114;11.674;2024-02-26T05:15:00;4.00;;;2.67;;
60730;SDS011;46580;52.114;11.674;2024-02-26T05:17:26;5.80;;;2.50;;
60730;SDS011;46580;52.114;11.674;2024-02-26T05:19:52;3.70;;;2.50;;
60730;SDS011;46580;52.114;11.674;2024-02-26T05:22:17;3.33;;;2.50;;
60730;SDS011;46580;52.114;11.674;2024-02-26T05:24:43;2.27;;;2.07;;
60730;SDS011;46580;52.114;11.674;2024-02-26T05:27:08;2.63;;;2.37;;
60730;SDS011;46580;52.114;11.674;2024-02-26T05:29:33;2.27;;;1.93;;
60730;SDS011;46580;52.114;11.674;2024-02-26T05:31:59;2.63;;;2.13;;
60730;SDS011;46580;52.114;11.674;2024-02-26T05:34:24;2.87;;;2.30;;
60730;SDS011;46580;52.114;11.674;2024-02-26T05:36:50;4.67;;;2.37;;
60730;SDS011;46580;52.114;11.674;2024-02-26T05:39:15;4.33;;;2.90;;
60730;SDS011;46580;52.114;11.674;2024-02-26T05:41:41;2.97;;;2.37;;
60730;SDS011;46580;52.114;11.674;2024-02-26T05:44:08;3.43;;;2.10;;
60730;SDS011;46580;52.114;11.674;2024-02-26T05:46:35;4.03;;;2.37;;
60730;SDS011;46580;52.114;11.674;2024-02-26T05:49:01;3.30;;;2.13;;
60730;SDS011;46580;52.114;11.674;2024-02-26T05:51:26;4.83;;;2.80;;
60730;SDS011;46580;52.114;11.674;2024-02-26T05:53:51;3.13;;;1.87;;
60730;SDS011;46580;52.114;11.674;2024-02-26T05:56:20;2.83;;;2.27;;
60730;SDS011;46580;52.114;11.674;2024-02-26T05:58:46;4.97;;;2.03;;
60730;SDS011;46580;52.114;11.674;2024-02-26T06:01:12;3.07;;;2.00;;
60730;SDS011;46580;52.114;11.674;2024-02-26T06:03:37;4.27;;;1.93;;
60730;SDS011;46580;52.114;11.674;2024-02-26T06:06:05;4.57;;;2.50;;
60730;SDS011;46580;52.114;11.674;2024-02-26T06:08:31;3.70;;;2.00;;
60730;SDS011;46580;52.114;11.674;2024-02-26T06:10:56;3.07;;;2.10;;
60730;SDS011;46580;52.114;11.674;2024-02-26T06:13:22;3.87;;;2.70;;
60730;SDS011;46580;52.114;11.674;2024-02-26T06:15:47;5.77;;;2.83;;
60730;SDS011;46580;52.114;11.674;2024-02-26T06:18:16;4.13;;;3.00;;
60730;SDS011;46580;52.114;11.674;2024-02-26T06:20:41;5.00;;;3.40;;
60730;SDS011;46580;52.114;11.674;2024-02-26T06:23:07;4.17;;;2.97;;
60730;SDS011;46580;52.114;11.674;2024-02-26T06:25:32;5.67;;;3.03;;
60730;SDS011;46580;52.114;11.674;2024-02-26T06:27:58;2.83;;;2.50;;
60730;SDS011;46580;52.114;11.674;2024-02-26T06:30:23;4.03;;;2.43;;
60730;SDS011;46580;52.114;11.674;2024-02-26T06:32:49;7.27;;;2.80;;
60730;SDS011;46580;52.114;11.674;2024-02-26T06:35:14;2.93;;;2.17;;
60730;SDS011;46580;52.114;11.674;2024-02-26T06:37:39;3.20;;;1.93;;
60730;SDS011;46580;52.114;11.674;2024-02-26T06:40:05;5.37;;;2.10;;
60730;SDS011;46580;52.114;11.674;2024-02-26T06:42:33;5.20;;;2.57;;
60730;SDS011;46580;52.114;11.674;2024-02-26T06:44:59;3.73;;;1.73;;
60730;SDS011;46580;52.114;11.674;2024-02-26T06:47:24;5.13;;;2.13;;
60730;SDS011;46580;52.114;11.674;2024-02-26T06:49:51;3.93;;;1.93;;
60730;SDS011;46580;52.114;11.674;2024-02-26T06:52:16;2.13;;;1.80;;
60730;SDS011;46580;52.114;11.674;2024-02-26T06:54:42;5.80;;;2.10;;
60730;SDS011;46580;52.114;11.674;2024-02-26T06:57:07;2.13;;;1.93;;
60730;SDS011;46580;52.114;11.674;2024-02-26T06:59:32;2.10;;;1.90;;
60730;SDS011;46580;52.114;11.674;2024-02-26T07:01:58;4.17;;;1.70;;
60730;SDS011;46580;52.114;11.674;2024-02-26T07:04:24;3.13;;;2.27;;
60730;SDS011;46580;52.114;11.674;2024-02-26T07:06:49;9.03;;;3.03;;
60730;SDS011;46580;52.114;11.674;2024-02-26T07:09:15;4.80;;;3.27;;
60730;SDS011;46580;52.114;11.674;2024-02-26T07:11:40;5.63;;;3.10;;
60730;SDS011;46580;52.114;11.674;2024-02-26T07:14:09;4.07;;;2.33;;
60730;SDS011;46580;52.114;11.674;2024-02-26T07:16:35;7.10;;;3.00;;
60730;SDS011;46580;52.114;11.674;2024-02-26T07:19:01;3.83;;;2.67;;
60730;SDS011;46580;52.114;11.674;2024-02-26T07:21:27;5.60;;;2.83;;
60730;SDS011;46580;52.114;11.674;2024-02-26T07:23:53;4.80;;;2.83;;
60730;SDS011;46580;52.114;11.674;2024-02-26T07:26:18;6.20;;;2.50;;
60730;SDS011;46580;52.114;11.674;2024-02-26T07:28:44;3.60;;;2.60;;
60730;SDS011;46580;52.114;11.674;2024-02-26T07:31:10;4.43;;;2.73;;
60730;SDS011;46580;52.114;11.674;2024-02-26T07:33:35;3.73;;;2.77;;
60730;SDS011;46580;52.114;11.674;2024-02-26T07:36:00;7.53;;;2.37;;
60730;SDS011;46580;52.114;11.674;2024-02-26T07:38:26;4.97;;;2.63;;
60730;SDS011;46580;52.114;11.674;2024-02-26T07:40:51;5.47;;;2.27;;
60730;SDS011;46580;52.114;11.674;2024-02-26T07:43:16;3.17;;;2.60;;
60730;SDS011;46580;52.114;11.674;2024-02-26T07:45:42;3.80;;;2.83;;
60730;SDS011;46580;52.114;11.674;2024-02-26T07:48:07;4.00;;;2.73;;
60730;SDS011;46580;52.114;11.674;2024-02-26T07:50:33;4.00;;;2.07;;
60730;SDS011;46580;52.114;11.674;2024-02-26T07:52:58;5.03;;;2.67;;
60730;SDS011;46580;52.114;11.674;2024-02-26T07:55:24;4.17;;;2.67;;
60730;SDS011;46580;52.114;11.674;2024-02-26T07:57:49;6.77;;;2.67;;
60730;SDS011;46580;52.114;11.674;2024-02-26T08:00:14;5.10;;;3.23;;
60730;SDS011;46580;52.114;11.674;2024-02-26T08:02:42;5.47;;;3.30;;
60730;SDS011;46580;52.114;11.674;2024-02-26T08:05:08;5.43;;;2.80;;
60730;SDS011;46580;52.114;11.674;2024-02-26T08:07:34;4.17;;;2.60;;
60730;SDS011;46580;52.114;11.674;2024-02-26T08:09:59;4.90;;;2.77;;
60730;SDS011;46580;52.114;11.674;2024-02-26T08:12:25;5.23;;;3.23;;
60730;SDS011;46580;52.114;11.674;2024-02-26T08:14:50;3.57;;;2.50;;
60730;SDS011;46580;52.114;11.674;2024-02-26T08:17:16;3.80;;;3.00;;
60730;SDS011;46580;52.114;11.674;2024-02-26T08:19:41;4.43;;;3.23;;
60730;SDS011;46580;52.114;11.674;2024-02-26T08:22:10;4.43;;;3.37;;
60730;SDS011;46580;52.114;11.674;2024-02-26T08:24:41;4.53;;;3.17;;
60730;SDS011;46580;52.114;11.674;2024-02-26T08:27:07;3.83;;;3.00;;
60730;SDS011;46580;52.114;11.674;2024-02-26T08:29:32;5.03;;;3.20;;
60730;SDS011;46580;52.114;11.674;2024-02-26T08:31:57;5.93;;;3.40;;
60730;SDS011;46580;52.114;11.674;2024-02-26T08:34:23;4.30;;;3.47;;
60730;SDS011;46580;52.114;11.674;2024-02-26T08:36:48;5.27;;;3.70;;
60730;SDS011;46580;52.114;11.674;2024-02-26T08:39:15;8.57;;;3.70;;
60730;SDS011;46580;52.114;11.674;2024-02-26T08:41:42;4.10;;;3.33;;
60730;SDS011;46580;52.114;11.674;2024-02-26T08:44:07;6.17;;;3.67;;
60730;SDS011;46580;52.114;11.674;2024-02-26T08:46:33;4.63;;;3.50;;
60730;SDS011;46580;52.114;11.674;2024-02-26T08:48:58;7.37;;;4.40;;
60730;SDS011;46580;52.114;11.674;2024-02-26T08:51:24;4.77;;;3.70;;
60730;SDS011;46580;52.114;11.674;2024-02-26T08:53:49;7.43;;;4.10;;
60730;SDS011;46580;52.114;11.674;2024-02-26T08:56:16;5.40;;;4.13;;
60730;SDS011;46580;52.114;11.674;2024-02-26T08:58:45;6.30;;;4.23;;
60730;SDS011;46580;52.114;11.674;2024-02-26T09:01:13;4.83;;;4.20;;
60730;SDS011;46580;52.114;11.674;2024-02-26T09:03:41;4.60;;;3.70;;
60730;SDS011;46580;52.114;11.674;2024-02-26T09:06:07;6.33;;;4.40;;
60730;SDS011;46580;52.114;11.674;2024-02-26T09:08:33;5.67;;;4.13;;
60730;SDS011;46580;52.114;11.674;2024-02-26T09:10:58;7.53;;;5.13;;
60730;SDS011;46580;52.114;11.674;2024-02-26T09:13:24;8.00;;;4.73;;
60730;SDS011;46580;52.114;11.674;2024-02-26T09:15:49;6.70;;;4.30;;
60730;SDS011;46580;52.114;11.674;2024-02-26T09:18:14;8.83;;;4.80;;
60730;SDS011;46580;52.114;11.674;2024-02-26T09:20:40;6.53;;;4.40;;
60730;SDS011;46580;52.114;11.674;2024-02-26T09:23:06;6.63;;;4.40;;
60730;SDS011;46580;52.114;11.674;2024-02-26T09:25:32;6.67;;;4.27;;
60730;SDS011;46580;52.114;11.674;2024-02-26T09:27:58;6.70;;;4.60;;
60730;SDS011;46580;52.114;11.674;2024-02-26T09:30:24;6.87;;;4.30;;
60730;SDS011;46580;52.114;11.674;2024-02-26T09:32:50;6.50;;;4.43;;
60730;SDS011;46580;52.114;11.674;2024-02-26T09:35:15;6.23;;;4.63;;
60730;SDS011;46580;52.114;11.674;2024-02-26T09:37:41;8.43;;;4.50;;
60730;SDS011;46580;52.114;11.674;2024-02-26T09:40:08;8.07;;;5.30;;
60730;SDS011;46580;52.114;11.674;2024-02-26T09:42:36;6.87;;;4.23;;
60730;SDS011;46580;52.114;11.674;2024-02-26T09:45:06;6.33;;;4.53;;
60730;SDS011;46580;52.114;11.674;2024-02-26T09:47:37;10.03;;;4.90;;
60730;SDS011;46580;52.114;11.674;2024-02-26T09:50:03;6.67;;;4.73;;
60730;SDS011;46580;52.114;11.674;2024-02-26T09:52:33;8.50;;;4.83;;
60730;SDS011;46580;52.114;11.674;2024-02-26T09:54:59;6.47;;;4.70;;
60730;SDS011;46580;52.114;11.674;2024-02-26T09:57:25;7.83;;;5.50;;
60730;SDS011;46580;52.114;11.674;2024-02-26T09:59:51;8.23;;;5.13;;
60730;SDS011;46580;52.114;11.674;2024-02-26T10:02:19;10.10;;;4.63;;
60730;SDS011;46580;52.114;11.674;2024-02-26T10:04:46;6.47;;;4.80;;
60730;SDS011;46580;52.114;11.674;2024-02-26T10:07:15;7.07;;;4.77;;
60730;SDS011;46580;52.114;11.674;2024-02-26T10:09:41;5.73;;;4.13;;
60730;SDS011;46580;52.114;11.674;2024-02-26T10:12:07;10.10;;;5.30;;
60730;SDS011;46580;52.114;11.674;2024-02-26T10:14:35;9.63;;;4.97;;
60730;SDS011;46580;52.114;11.674;2024-02-26T10:17:01;7.93;;;5.50;;
60730;SDS011;46580;52.114;11.674;2024-02-26T10:19:27;8.97;;;5.40;;
60730;SDS011;46580;52.114;11.674;2024-02-26T10:21:57;7.07;;;5.10;;
60730;SDS011;46580;52.114;11.674;2024-02-26T10:24:27;9.53;;;5.27;;
60730;SDS011;46580;52.114;11.674;2024-02-26T10:26:56;8.70;;;6.10;;
60730;SDS011;46580;52.114;11.674;2024-02-26T10:29:23;9.67;;;5.60;;
60730;SDS011;46580;52.114;11.674;2024-02-26T10:31:53;10.37;;;6.10;;
60730;SDS011;46580;52.114;11.674;2024-02-26T10:34:19;6.53;;;5.53;;
60730;SDS011;46580;52.114;11.674;2024-02-26T10:36:45;6.83;;;5.20;;
60730;SDS011;46580;52.114;11.674;2024-02-26T10:39:13;7.50;;;5.43;;
60730;SDS011;46580;52.114;11.674;2024-02-26T10:41:43;8.70;;;5.60;;
60730;SDS011;46580;52.114;11.674;2024-02-26T10:44:10;8.17;;;4.67;;
60730;SDS011;46580;52.114;11.674;2024-02-26T10:46:37;9.80;;;5.80;;
60730;SDS011;46580;52.114;11.674;2024-02-26T10:49:03;11.70;;;6.37;;
60730;SDS011;46580;52.114;11.674;2024-02-26T10:51:34;8.33;;;5.67;;
60730;SDS011;46580;52.114;11.674;2024-02-26T10:54:02;8.10;;;5.47;;
60730;SDS011;46580;52.114;11.674;2024-02-26T10:56:41;10.90;;;5.87;;
60730;SDS011;46580;52.114;11.674;2024-02-26T10:59:09;12.97;;;5.57;;
60730;SDS011;46580;52.114;11.674;2024-02-26T11:01:35;10.10;;;5.97;;
60730;SDS011;46580;52.114;11.674;2024-02-26T11:04:03;7.63;;;5.37;;
60730;SDS011;46580;52.114;11.674;2024-02-26T11:06:29;7.90;;;5.60;;
60730;SDS011;46580;52.114;11.674;2024-02-26T11:08:56;9.00;;;5.73;;
60730;SDS011;46580;52.114;11.674;2024-02-26T11:11:23;9.93;;;5.17;;
60730;SDS011;46580;52.114;11.674;2024-02-26T11:13:51;9.27;;;5.90;;
60730;SDS011;46580;52.114;11.674;2024-02-26T11:16:22;10.50;;;5.87;;
60730;SDS011;46580;52.114;11.674;2024-02-26T11:18:49;9.13;;;6.30;;
60730;SDS011;46580;52.114;11.674;2024-02-26T11:21:17;10.60;;;6.63;;
60730;SDS011;46580;52.114;11.674;2024-02-26T11:23:47;11.93;;;6.23;;
60730;SDS011;46580;52.114;11.674;2024-02-26T11:26:13;10.17;;;6.10;;
60730;SDS011;46580;52.114;11.674;2024-02-26T11:28:41;8.57;;;5.50;;
60730;SDS011;46580;52.114;11.674;2024-02-26T11:31:07;13.77;;;6.17;;
60730;SDS011;46580;52.114;11.674;2024-02-26T11:33:34;9.33;;;6.73;;
60730;SDS011;46580;52.114;11.674;2024-02-26T11:36:24;8.03;;;5.53;;
60730;SDS011;46580;52.114;11.674;2024-02-26T11:38:52;8.10;;;5.40;;
60730;SDS011;46580;52.114;11.674;2024-02-26T11:41:17;13.57;;;6.23;;
60730;SDS011;46580;52.114;11.674;2024-02-26T11:43:53;9.97;;;5.77;;
60730;SDS011;46580;52.114;11.674;2024-02-26T11:46:33;14.60;;;6.83;;
60730;SDS011;46580;52.114;11.674;2024-02-26T11:49:29;12.40;;;7.27;;
60730;SDS011;46580;52.114;11.674;2024-02-26T11:51:55;9.10;;;5.77;;
60730;SDS011;46580;52.114;11.674;2024-02-26T11:57:22;13.37;;;6.73;;
60730;SDS011;46580;52.114;11.674;2024-02-26T12:00:02;8.17;;;6.10;;
60730;SDS011;46580;52.114;11.674;2024-02-26T12:05:15;9.73;;;7.07;;
60730;SDS011;46580;52.114;11.674;2024-02-26T12:07:45;10.73;;;7.17;;
60730;SDS011;46580;52.114;11.674;2024-02-26T12:12:59;10.50;;;6.77;;
60730;SDS011;46580;52.114;11.674;2024-02-26T12:15:31;8.27;;;6.40;;
60730;SDS011;46580;52.114;11.674;2024-02-26T12:18:02;10.53;;;6.80;;
60730;SDS011;46580;52.114;11.674;2024-02-26T12:20:29;12.07;;;7.70;;
60730;SDS011;46580;52.114;11.674;2024-02-26T12:22:54;10.10;;;6.77;;
60730;SDS011;46580;52.114;11.674;2024-02-26T12:25:23;11.47;;;7.37;;
60730;SDS011;46580;52.114;11.674;2024-02-26T12:27:51;10.10;;;7.57;;
60730;SDS011;46580;52.114;11.674;2024-02-26T12:30:17;10.77;;;7.03;;
60730;SDS011;46580;52.114;11.674;2024-02-26T12:32:44;12.77;;;7.83;;
60730;SDS011;46580;52.114;11.674;2024-02-26T12:35:11;15.03;;;7.33;;
60730;SDS011;46580;52.114;11.674;2024-02-26T12:37:38;13.70;;;7.83;;
60730;SDS011;46580;52.114;11.674;2024-02-26T12:40:19;10.80;;;6.77;;
60730;SDS011;46580;52.114;11.674;2024-02-26T12:42:54;13.87;;;7.67;;
60730;SDS011;46580;52.114;11.674;2024-02-26T12:45:41;11.53;;;7.20;;
60730;SDS011;46580;52.114;11.674;2024-02-26T12:48:12;12.27;;;8.00;;
60730;SDS011;46580;52.114;11.674;2024-02-26T12:50:39;12.53;;;7.57;;
60730;SDS011;46580;52.114;11.674;2024-02-26T12:53:04;12.30;;;7.50;;
60730;SDS011;46580;52.114;11.674;2024-02-26T12:55:30;14.53;;;8.07;;
60730;SDS011;46580;52.114;11.674;2024-02-26T12:57:59;12.90;;;7.67;;
60730;SDS011;46580;52.114;11.674;2024-02-26T13:00:25;13.90;;;7.90;;
60730;SDS011;46580;52.114;11.674;2024-02-26T13:02:52;15.33;;;8.53;;
60730;SDS011;46580;52.114;11.674;2024-02-26T13:05:20;12.33;;;8.70;;
60730;SDS011;46580;52.114;11.674;2024-02-26T13:07:47;13.00;;;8.00;;
60730;SDS011;46580;52.114;11.674;2024-02-26T13:10:13;15.67;;;8.93;;
60730;SDS011;46580;52.114;11.674;2024-02-26T13:12:43;11.37;;;7.70;;
60730;SDS011;46580;52.114;11.674;2024-02-26T13:15:21;12.27;;;8.37;;
60730;SDS011;46580;52.114;11.674;2024-02-26T13:17:47;12.40;;;7.60;;
60730;SDS011;46580;52.114;11.674;2024-02-26T13:20:24;12.47;;;8.10;;
60730;SDS011;46580;52.114;11.674;2024-02-26T13:23:26;11.93;;;7.07;;
60730;SDS011;46580;52.114;11.674;2024-02-26T13:25:45;13.67;;;8.07;;
60730;SDS011;46580;52.114;11.674;2024-02-26T13:28:14;11.03;;;7.07;;
60730;SDS011;46580;52.114;11.674;2024-02-26T13:30:41;12.47;;;8.27;;
60730;SDS011;46580;52.114;11.674;2024-02-26T13:33:14;13.17;;;7.77;;
60730;SDS011;46580;52.114;11.674;2024-02-26T13:35:40;13.23;;;9.27;;
60730;SDS011;46580;52.114;11.674;2024-02-26T13:38:06;14.73;;;8.10;;
60730;SDS011;46580;52.114;11.674;2024-02-26T13:40:31;15.97;;;8.53;;
60730;SDS011;46580;52.114;11.674;2024-02-26T13:42:57;11.90;;;7.63;;
60730;SDS011;46580;52.114;11.674;2024-02-26T13:45:23;12.40;;;7.40;;
60730;SDS011;46580;52.114;11.674;2024-02-26T13:47:48;16.80;;;8.80;;
60730;SDS011;46580;52.114;11.674;2024-02-26T13:50:14;11.53;;;6.93;;
60730;SDS011;46580;52.114;11.674;2024-02-26T13:52:39;13.63;;;7.70;;
60730;SDS011;46580;52.114;11.674;2024-02-26T13:55:08;13.87;;;7.80;;
60730;SDS011;46580;52.114;11.674;2024-02-26T13:57:33;10.63;;;7.77;;
60730;SDS011;46580;52.114;11.674;2024-02-26T13:59:59;12.93;;;7.83;;
60730;SDS011;46580;52.114;11.674;2024-02-26T14:02:24;14.90;;;6.77;;
60730;SDS011;46580;52.114;11.674;2024-02-26T14:04:49;12.47;;;7.60;;
60730;SDS011;46580;52.114;11.674;2024-02-26T14:07:15;10.43;;;7.30;;
60730;SDS011;46580;52.114;11.674;2024-02-26T14:09:42;12.37;;;7.60;;
60730;SDS011;46580;52.114;11.674;2024-02-26T14:12:08;12.47;;;7.63;;
60730;SDS011;46580;52.114;11.674;2024-02-26T14:14:33;10.37;;;7.17;;
60730;SDS011;46580;52.114;11.674;2024-02-26T14:17:03;13.03;;;8.13;;
60730;SDS011;46580;52.114;11.674;2024-02-26T14:19:29;13.10;;;6.97;;
60730;SDS011;46580;52.114;11.674;2024-02-26T14:21:54;12.37;;;6.90;;
60730;SDS011;46580;52.114;11.674;2024-02-26T14:24:22;10.33;;;6.47;;
60730;SDS011;46580;52.114;11.674;2024-02-26T14:26:47;9.80;;;6.77;;
60730;SDS011;46580;52.114;11.674;2024-02-26T14:29:13;11.87;;;7.90;;
60730;SDS011;46580;52.114;11.674;2024-02-26T14:31:39;11.73;;;6.50;;
60730;SDS011;46580;52.114;11.674;2024-02-26T14:34:05;14.57;;;6.60;;
60730;SDS011;46580;52.114;11.674;2024-02-26T14:36:30;8.47;;;5.73;;